createdAt,value
2018-07-24T05:48:46.039Z,64.50
2018-07-24T05:51:14.237Z,62.62
2018-07-24T05:53:42.352Z,59.33
2018-07-24T05:56:10.465Z,57.67
2018-07-24T05:58:38.555Z,54.38
2018-07-24T06:01:06.836Z,52.26
2018-07-24T06:03:34.944Z,51.45
2018-07-24T06:06:03.063Z,54.33
2018-07-24T06:08:31.168Z,54.95
2018-07-24T06:10:59.280Z,51.93
2018-07-24T06:13:27.393Z,50.56
2018-07-24T06:15:55.528Z,49.18
2018-07-24T06:18:23.632Z,50.93
2018-07-24T06:20:51.841Z,49.27
2018-07-24T06:23:19.991Z,50.01
2018-07-24T06:25:48.147Z,49.01
2018-07-24T06:28:16.379Z,47.15
2018-07-24T06:30:44.502Z,47.08
2018-07-24T06:33:13.268Z,46.41
2018-07-24T06:35:41.380Z,47.48
2018-07-24T06:38:09.644Z,50.25
2018-07-24T06:40:38.662Z,51.60
2018-07-24T06:43:07.600Z,54.52
2018-07-24T06:45:35.729Z,61.41
2018-07-24T06:48:03.877Z,66.82
2018-07-24T06:50:32.447Z,69.65
2018-07-24T06:53:00.548Z,71.49
2018-07-24T06:55:29.284Z,72.65
2018-07-24T06:57:57.404Z,71.51
2018-07-24T07:00:25.503Z,73.02
2018-07-24T07:02:54.767Z,72.37
2018-07-24T07:05:22.852Z,73.00
2018-07-24T07:07:50.983Z,73.59
2018-07-24T07:10:19.922Z,73.67
2018-07-24T07:12:48.034Z,73.25
2018-07-24T07:15:16.128Z,73.36
2018-07-24T07:17:44.245Z,71.47
2018-07-24T07:20:12.635Z,71.46
2018-07-24T07:22:40.859Z,70.50
2018-07-24T07:25:08.964Z,69.89
2018-07-24T07:27:38.233Z,67.05
2018-07-24T07:30:06.359Z,65.92
2018-07-24T07:32:34.647Z,65.30
2018-07-24T07:35:02.781Z,64.26
2018-07-24T07:37:31.046Z,61.61
2018-07-24T07:39:59.229Z,64.46
2018-07-24T07:42:27.335Z,60.68
2018-07-24T07:44:55.445Z,61.56
2018-07-24T07:47:23.611Z,60.83
2018-07-24T07:49:51.736Z,60.48
2018-07-24T07:52:20.189Z,59.57
2018-07-24T07:54:48.493Z,60.43
2018-07-24T07:57:16.650Z,59.48
2018-07-24T07:59:44.764Z,60.86
2018-07-24T08:02:13.156Z,58.89
2018-07-24T08:04:41.289Z,59.75
2018-07-24T08:07:09.585Z,56.55
2018-07-24T08:09:37.818Z,57.24
2018-07-24T08:12:05.919Z,56.73
2018-07-24T08:14:34.045Z,58.28
2018-07-24T08:17:02.128Z,55.78
2018-07-24T08:19:30.250Z,55.91
2018-07-24T08:21:58.359Z,55.31
2018-07-24T08:24:26.559Z,55.84
2018-07-24T08:26:54.667Z,56.07
2018-07-24T08:29:23.033Z,56.89
2018-07-24T08:31:51.157Z,55.39
2018-07-24T08:34:20.219Z,53.75
2018-07-24T08:36:48.618Z,53.77
2018-07-24T08:39:16.820Z,52.73
2018-07-24T08:41:44.936Z,55.17
2018-07-24T08:44:13.025Z,52.49
2018-07-24T08:46:41.121Z,52.37
2018-07-24T08:49:09.304Z,52.47
2018-07-24T08:51:37.416Z,53.04
2018-07-24T08:54:05.603Z,51.39
2018-07-24T08:56:33.664Z,52.53
2018-07-24T08:59:01.828Z,50.80
2018-07-24T09:01:30.043Z,49.77
2018-07-24T09:03:58.175Z,49.75
2018-07-24T09:06:26.660Z,49.14
2018-07-24T09:08:54.783Z,48.86
2018-07-24T09:11:22.912Z,48.62
2018-07-24T09:13:51.020Z,47.95
2018-07-24T09:16:19.219Z,47.74
2018-07-24T09:18:47.323Z,47.55
2018-07-24T09:21:15.446Z,46.53
2018-07-24T09:23:43.588Z,46.25
2018-07-24T09:26:11.947Z,47.68
2018-07-24T09:28:40.061Z,46.35
2018-07-24T09:31:08.166Z,45.43
2018-07-24T09:33:36.254Z,45.47
2018-07-24T09:36:04.690Z,42.73
2018-07-24T09:38:32.808Z,44.06
2018-07-24T09:41:00.916Z,42.76
2018-07-24T09:43:29.413Z,43.27
2018-07-24T09:45:57.610Z,43.99
2018-07-24T09:48:25.684Z,43.96
2018-07-24T09:50:53.808Z,43.60
2018-07-24T09:53:21.934Z,42.61
2018-07-24T09:55:50.053Z,43.99
2018-07-24T09:58:18.165Z,41.79
2018-07-24T10:00:51.735Z,41.46
2018-07-24T10:03:19.844Z,43.45
2018-07-24T10:05:47.957Z,42.00
2018-07-24T10:08:16.071Z,41.47
2018-07-24T10:10:44.168Z,41.74
2018-07-24T10:13:13.463Z,41.91
2018-07-24T10:15:41.524Z,41.53
2018-07-24T10:18:09.628Z,42.42
2018-07-24T10:20:37.742Z,42.34
2018-07-24T10:23:05.861Z,39.97
2018-07-24T10:25:33.964Z,39.96
2018-07-24T10:28:02.060Z,39.99
2018-07-24T10:30:30.274Z,40.19
2018-07-24T10:32:58.334Z,40.25
2018-07-24T10:35:26.457Z,39.44
2018-07-24T10:37:54.785Z,39.47
2018-07-24T10:40:22.897Z,40.46
2018-07-24T10:42:51.055Z,39.08
2018-07-24T10:45:19.223Z,40.58
2018-07-24T10:47:47.355Z,40.05
2018-07-24T10:50:15.468Z,40.11
2018-07-24T10:52:45.003Z,40.31
2018-07-24T10:55:13.103Z,39.19
2018-07-24T10:57:41.212Z,43.40
2018-07-24T11:00:09.411Z,40.64
2018-07-24T11:02:37.524Z,39.77
2018-07-24T11:05:05.644Z,39.30
2018-07-24T11:07:33.752Z,39.81
2018-07-24T11:10:02.140Z,40.29
2018-07-24T11:12:30.465Z,41.25
2018-07-24T11:14:58.613Z,41.87
2018-07-24T11:17:26.713Z,38.24
2018-07-24T11:19:54.857Z,38.81
2018-07-24T11:22:23.139Z,38.14
2018-07-24T11:24:51.184Z,39.25
2018-07-24T11:27:19.544Z,39.60
2018-07-24T11:29:47.588Z,36.56
2018-07-24T11:32:15.880Z,37.54
2018-07-24T11:34:43.996Z,38.46
2018-07-24T11:37:12.175Z,37.20
2018-07-24T11:39:41.418Z,36.40
2018-07-24T11:42:09.621Z,36.70
2018-07-24T11:44:37.780Z,37.35
2018-07-24T11:47:05.912Z,38.70
2018-07-24T11:49:34.000Z,39.01
2018-07-24T11:52:02.136Z,39.54
2018-07-24T11:54:30.226Z,36.67
2018-07-24T11:56:58.337Z,36.63
2018-07-24T11:59:27.388Z,37.90
2018-07-24T12:01:55.475Z,37.11
2018-07-24T12:04:23.592Z,35.70
2018-07-24T12:06:52.033Z,35.04
2018-07-24T12:09:20.234Z,35.53
2018-07-24T12:11:48.325Z,34.17
2018-07-24T12:14:17.296Z,35.38
2018-07-24T12:16:45.411Z,36.65
2018-07-24T12:19:13.545Z,34.56
2018-07-24T12:21:41.622Z,37.67
2018-07-24T12:24:10.230Z,36.30
2018-07-24T12:26:38.303Z,35.04
2018-07-24T12:29:06.399Z,33.29
2018-07-24T12:31:34.501Z,35.29
2018-07-24T12:34:02.638Z,36.14
2018-07-24T12:36:30.712Z,34.47
2018-07-24T12:38:58.832Z,36.70
2018-07-24T12:41:26.945Z,34.80
2018-07-24T12:43:55.063Z,33.06
2018-07-24T12:46:23.164Z,34.38
2018-07-24T12:48:51.339Z,34.69
2018-07-24T12:51:19.510Z,34.78
2018-07-24T12:53:47.649Z,34.75
2018-07-24T12:56:15.974Z,34.26
2018-07-24T12:58:44.104Z,33.04
2018-07-24T13:01:12.208Z,31.49
2018-07-24T13:03:40.320Z,32.89
2018-07-24T13:06:08.633Z,32.42
2018-07-24T13:08:36.745Z,31.63
2018-07-24T13:11:04.827Z,32.97
2018-07-24T13:13:32.985Z,30.71
2018-07-24T13:16:01.079Z,29.71
2018-07-24T13:18:29.188Z,32.45
2018-07-24T13:20:57.337Z,30.55
2018-07-24T13:23:25.476Z,32.20
2018-07-24T13:25:53.764Z,30.64
2018-07-24T13:28:21.876Z,31.07
2018-07-24T13:30:50.107Z,30.62
2018-07-24T13:33:18.351Z,30.61
2018-07-24T13:35:46.454Z,31.15
2018-07-24T13:38:14.728Z,30.36
2018-07-24T13:40:43.114Z,29.87
2018-07-24T13:43:11.527Z,28.12
2018-07-24T13:45:39.791Z,29.12
2018-07-24T13:48:07.916Z,29.24
2018-07-24T13:50:37.035Z,30.27
2018-07-24T13:53:05.156Z,29.35
2018-07-24T13:55:33.359Z,29.38
2018-07-24T13:58:01.484Z,28.25
2018-07-24T14:00:29.608Z,28.92
2018-07-24T14:02:57.740Z,27.35
2018-07-24T14:05:25.976Z,28.31
2018-07-24T14:07:54.075Z,28.28
2018-07-24T14:10:22.236Z,26.81
2018-07-24T14:12:50.508Z,30.34
2018-07-24T14:15:18.881Z,28.22
2018-07-24T14:17:47.090Z,27.21
2018-07-24T14:20:15.217Z,28.45
2018-07-24T14:22:43.375Z,26.90
2018-07-24T14:25:11.475Z,27.04
2018-07-24T14:27:39.563Z,27.11
2018-07-24T14:30:08.036Z,29.11
2018-07-24T14:32:36.207Z,26.01
2018-07-24T14:35:04.352Z,27.09
2018-07-24T14:37:32.451Z,28.34
2018-07-24T14:40:00.534Z,26.82
2018-07-24T14:42:28.674Z,28.26
2018-07-24T14:44:56.788Z,28.39
2018-07-24T14:47:25.125Z,28.73
2018-07-24T14:49:53.552Z,27.64
2018-07-24T14:52:21.664Z,28.59
2018-07-24T14:54:49.761Z,28.24
2018-07-24T14:57:17.864Z,29.14
2018-07-24T14:59:45.995Z,27.87
2018-07-24T15:02:14.098Z,28.75
2018-07-24T15:04:42.247Z,29.75
2018-07-24T15:07:10.339Z,30.71
2018-07-24T15:09:38.447Z,31.89
2018-07-24T15:12:06.779Z,30.85
2018-07-24T15:14:34.884Z,30.61
2018-07-24T15:17:03.031Z,31.47
2018-07-24T15:19:31.148Z,30.42
2018-07-24T15:21:59.271Z,30.17
2018-07-24T15:24:27.366Z,31.37
2018-07-24T15:26:55.491Z,30.80
2018-07-24T15:29:24.567Z,31.13
2018-07-24T15:31:52.681Z,30.02
2018-07-24T15:34:20.919Z,29.42
2018-07-24T15:36:48.933Z,29.33
2018-07-24T15:39:17.038Z,29.30
2018-07-24T15:41:45.419Z,30.48
2018-07-24T15:44:13.550Z,30.29
2018-07-24T15:46:41.741Z,28.66
2018-07-24T15:49:09.806Z,31.05
2018-07-24T15:51:37.905Z,29.69
2018-07-24T15:54:06.076Z,30.06
2018-07-24T15:56:34.185Z,27.32
2018-07-24T15:59:02.283Z,27.32
2018-07-24T16:01:37.679Z,27.22
2018-07-24T16:04:06.292Z,27.24
2018-07-24T16:06:34.457Z,28.18
2018-07-24T16:09:02.545Z,27.36
2018-07-24T16:11:30.751Z,27.16
2018-07-24T16:13:58.855Z,27.35
2018-07-24T16:16:26.976Z,28.90
2018-07-24T16:18:55.088Z,27.36
2018-07-24T16:21:23.179Z,27.36
2018-07-24T16:23:51.313Z,27.25
2018-07-24T16:26:19.800Z,27.88
2018-07-24T16:28:47.920Z,27.90
2018-07-24T16:31:16.048Z,26.51
2018-07-24T16:33:44.155Z,27.25
2018-07-24T16:36:12.262Z,28.12
2018-07-24T16:38:40.359Z,28.05
2018-07-24T16:41:08.478Z,29.75
2018-07-24T16:43:36.592Z,27.99
2018-07-24T16:46:04.688Z,29.15
2018-07-24T16:48:32.860Z,28.28
2018-07-24T16:51:01.012Z,28.33
2018-07-24T16:53:29.134Z,29.95
2018-07-24T16:55:58.241Z,26.42
2018-07-24T16:58:26.421Z,27.72
2018-07-24T17:00:54.534Z,26.50
2018-07-24T17:03:22.672Z,26.74
2018-07-24T17:05:50.780Z,29.00
2018-07-24T17:08:19.020Z,26.99
2018-07-24T17:10:47.134Z,28.40
2018-07-24T17:13:15.232Z,26.99
2018-07-24T17:15:43.328Z,28.90
2018-07-24T17:18:11.502Z,28.80
2018-07-24T17:20:40.604Z,30.40
2018-07-24T17:23:08.715Z,30.89
2018-07-24T17:25:36.911Z,30.81
2018-07-24T17:28:05.088Z,30.84
2018-07-24T17:30:33.207Z,29.86
2018-07-24T17:33:01.307Z,30.15
2018-07-24T17:35:30.089Z,30.89
2018-07-24T17:37:58.235Z,31.63
2018-07-24T17:40:26.364Z,31.95
2018-07-24T17:42:54.467Z,32.49
2018-07-24T17:45:22.556Z,32.54
2018-07-24T17:47:50.676Z,32.78
2018-07-24T17:50:18.952Z,32.64
2018-07-24T17:52:47.386Z,33.44
2018-07-24T17:55:15.503Z,33.81
2018-07-24T17:57:43.782Z,33.21
2018-07-24T18:00:11.910Z,33.20
2018-07-24T18:02:39.996Z,33.62
2018-07-24T18:05:08.118Z,33.31
2018-07-24T18:07:36.358Z,33.90
2018-07-24T18:10:04.624Z,34.11
2018-07-24T18:12:32.789Z,33.85
2018-07-24T18:15:00.929Z,35.03
2018-07-24T18:17:28.957Z,35.34
2018-07-24T18:19:57.056Z,35.88
2018-07-24T18:22:25.143Z,36.19
2018-07-24T18:24:53.240Z,36.89
2018-07-24T18:27:21.469Z,37.40
2018-07-24T18:29:49.664Z,37.23
2018-07-24T18:32:17.760Z,38.09
2018-07-24T18:34:45.852Z,37.64
2018-07-24T18:37:13.939Z,38.86
2018-07-24T18:39:42.017Z,39.80
2018-07-24T18:42:10.165Z,39.51
2018-07-24T18:44:38.243Z,40.74
2018-07-24T18:47:06.330Z,40.31
2018-07-24T18:49:34.415Z,40.81
2018-07-24T18:52:02.527Z,40.78
2018-07-24T18:54:30.638Z,40.99
2018-07-24T18:56:58.726Z,40.89
2018-07-24T18:59:26.843Z,41.45
2018-07-24T19:01:54.956Z,41.35
2018-07-24T19:04:23.147Z,41.99
2018-07-24T19:06:51.249Z,42.50
2018-07-24T19:09:19.347Z,42.08
2018-07-24T19:11:47.446Z,42.28
2018-07-24T19:14:15.811Z,42.58
2018-07-24T19:16:43.891Z,43.63
2018-07-24T19:19:11.966Z,44.05
2018-07-24T19:21:40.053Z,44.98
2018-07-24T19:24:08.240Z,45.13
2018-07-24T19:26:36.332Z,45.13
2018-07-24T19:29:05.269Z,45.44
2018-07-24T19:31:33.351Z,46.56
2018-07-24T19:34:01.450Z,46.15
2018-07-24T19:36:29.551Z,46.25
2018-07-24T19:38:57.641Z,46.31
2018-07-24T19:41:25.739Z,47.40
2018-07-24T19:43:53.885Z,47.31
2018-07-24T19:46:21.929Z,48.59
2018-07-24T19:48:50.019Z,49.01
2018-07-24T19:51:18.153Z,51.17
2018-07-24T19:53:46.265Z,52.62
2018-07-24T19:56:14.377Z,53.04
2018-07-24T19:58:42.484Z,52.43
2018-07-24T20:01:10.595Z,51.99
2018-07-24T20:03:39.067Z,52.41
2018-07-24T20:06:07.123Z,52.79
2018-07-24T20:08:35.210Z,52.74
2018-07-24T20:11:03.297Z,52.30
2018-07-24T20:13:31.392Z,53.47
2018-07-24T20:15:59.485Z,54.84
2018-07-24T20:18:27.583Z,53.73
2018-07-24T20:20:55.683Z,54.75
2018-07-24T20:23:24.002Z,54.28
2018-07-24T20:25:51.947Z,54.72
2018-07-24T20:28:20.634Z,56.63
2018-07-24T20:30:48.879Z,56.95
2018-07-24T20:33:16.951Z,57.91
2018-07-24T20:35:45.069Z,58.60
2018-07-24T22:23:46.163Z,70.45
2018-07-24T22:26:14.755Z,71.01
2018-07-24T22:28:42.866Z,71.01
2018-07-24T22:31:10.963Z,70.56
2018-07-24T22:33:39.071Z,71.16
2018-07-24T22:36:07.208Z,69.91
2018-07-24T22:38:35.310Z,71.18
2018-07-24T22:41:03.434Z,71.33
2018-07-24T22:43:31.516Z,71.35
2018-07-24T22:45:59.605Z,71.17
2018-07-24T22:48:27.712Z,72.69
2018-07-24T22:50:55.811Z,73.77
2018-07-24T22:53:23.934Z,72.54
2018-07-24T22:55:52.335Z,73.51
2018-07-24T22:58:20.979Z,73.86
2018-07-24T23:00:49.071Z,73.62
2018-07-24T23:03:17.167Z,74.51
2018-07-24T23:05:45.262Z,75.08
2018-07-24T23:08:13.381Z,75.08
2018-07-24T23:10:41.791Z,75.78
2018-07-24T23:13:09.870Z,76.17
2018-07-24T23:15:37.974Z,76.12
2018-07-24T23:18:06.083Z,76.87
2018-07-24T23:20:34.188Z,76.78
2018-07-24T23:23:02.293Z,77.46
2018-07-24T23:25:30.383Z,76.80
2018-07-24T23:27:58.472Z,76.84
2018-07-24T23:30:26.577Z,76.88
2018-07-24T23:32:54.654Z,77.11
2018-07-24T23:35:22.769Z,77.68
2018-07-24T23:37:50.880Z,77.36
2018-07-24T23:40:19.026Z,76.88
2018-07-24T23:42:47.110Z,77.62
2018-07-24T23:45:15.219Z,77.25
2018-07-24T23:47:43.322Z,77.63
2018-07-24T23:50:11.589Z,77.58
2018-07-24T23:52:39.766Z,78.11
2018-07-24T23:55:07.897Z,77.78
2018-07-24T23:57:36.059Z,77.86
